sensor_id;sensor_type;location;lat;lon;timestamp;P1;durP1;ratioP1;P2;durP2;ratioP2
73264;SDS011;61493;51.008;14.088;2023-12-20T00:00:54;3.88;;;2.28;;
73264;SDS011;61493;51.008;14.088;2023-12-20T00:03:20;3.78;;;2.35;;
73264;SDS011;61493;51.008;14.088;2023-12-20T00:05:45;5.13;;;2.60;;
73264;SDS011;61493;51.008;14.088;2023-12-20T00:08:11;5.45;;;2.17;;
73264;SDS011;61493;51.008;14.088;2023-12-20T00:10:36;4.20;;;2.15;;
73264;SDS011;61493;51.008;14.088;2023-12-20T00:13:01;4.68;;;1.98;;
73264;SDS011;61493;51.008;14.088;2023-12-20T00:15:26;4.63;;;2.28;;
73264;SDS011;61493;51.008;14.088;2023-12-20T00:17:52;2.47;;;1.65;;
73264;SDS011;61493;51.008;14.088;2023-12-20T00:20:17;3.55;;;1.88;;
73264;SDS011;61493;51.008;14.088;2023-12-20T00:22:42;3.67;;;2.05;;
73264;SDS011;61493;51.008;14.088;2023-12-20T00:25:07;4.40;;;2.55;;
73264;SDS011;61493;51.008;14.088;2023-12-20T00:27:33;4.10;;;1.98;;
73264;SDS011;61493;51.008;14.088;2023-12-20T00:29:58;3.75;;;2.15;;
73264;SDS011;61493;51.008;14.088;2023-12-20T00:32:23;2.22;;;1.38;;
73264;SDS011;61493;51.008;14.088;2023-12-20T00:34:48;4.95;;;1.92;;
73264;SDS011;61493;51.008;14.088;2023-12-20T00:37:13;3.10;;;1.80;;
73264;SDS011;61493;51.008;14.088;2023-12-20T00:39:39;4.03;;;1.80;;
73264;SDS011;61493;51.008;14.088;2023-12-20T00:42:04;3.40;;;1.80;;
73264;SDS011;61493;51.008;14.088;2023-12-20T00:44:29;4.05;;;1.67;;
73264;SDS011;61493;51.008;14.088;2023-12-20T00:46:55;4.07;;;1.98;;
73264;SDS011;61493;51.008;14.088;2023-12-20T00:49:20;3.30;;;1.70;;
73264;SDS011;61493;51.008;14.088;2023-12-20T00:51:45;4.72;;;2.03;;
73264;SDS011;61493;51.008;14.088;2023-12-20T00:54:11;2.92;;;1.67;;
73264;SDS011;61493;51.008;14.088;2023-12-20T00:56:37;6.20;;;2.75;;
73264;SDS011;61493;51.008;14.088;2023-12-20T00:59:02;4.72;;;2.15;;
73264;SDS011;61493;51.008;14.088;2023-12-20T01:01:27;4.13;;;1.70;;
73264;SDS011;61493;51.008;14.088;2023-12-20T01:03:52;3.70;;;1.65;;
73264;SDS011;61493;51.008;14.088;2023-12-20T01:50:02;2.90;;;1.58;;
73264;SDS011;61493;51.008;14.088;2023-12-20T01:52:28;3.17;;;1.67;;
73264;SDS011;61493;51.008;14.088;2023-12-20T01:54:59;2.78;;;1.52;;
73264;SDS011;61493;51.008;14.088;2023-12-20T01:57:30;4.55;;;2.38;;
73264;SDS011;61493;51.008;14.088;2023-12-20T01:59:56;3.08;;;1.70;;
73264;SDS011;61493;51.008;14.088;2023-12-20T02:02:23;1.52;;;1.30;;
73264;SDS011;61493;51.008;14.088;2023-12-20T02:04:48;3.03;;;1.58;;
73264;SDS011;61493;51.008;14.088;2023-12-20T02:07:16;3.38;;;1.38;;
73264;SDS011;61493;51.008;14.088;2023-12-20T02:09:43;2.65;;;1.55;;
73264;SDS011;61493;51.008;14.088;2023-12-20T02:12:09;2.97;;;1.33;;
73264;SDS011;61493;51.008;14.088;2023-12-20T02:14:34;2.28;;;1.20;;
73264;SDS011;61493;51.008;14.088;2023-12-20T02:17:05;2.35;;;1.45;;
73264;SDS011;61493;51.008;14.088;2023-12-20T02:19:31;2.65;;;1.58;;
73264;SDS011;61493;51.008;14.088;2023-12-20T02:22:07;2.53;;;1.30;;
73264;SDS011;61493;51.008;14.088;2023-12-20T02:24:34;3.03;;;1.83;;
73264;SDS011;61493;51.008;14.088;2023-12-20T02:27:00;2.35;;;1.13;;
73264;SDS011;61493;51.008;14.088;2023-12-20T02:29:28;2.17;;;1.42;;
73264;SDS011;61493;51.008;14.088;2023-12-20T02:31:53;3.00;;;1.50;;
73264;SDS011;61493;51.008;14.088;2023-12-20T02:34:21;2.38;;;1.30;;
73264;SDS011;61493;51.008;14.088;2023-12-20T02:36:48;1.77;;;0.90;;
73264;SDS011;61493;51.008;14.088;2023-12-20T02:39:14;3.03;;;1.55;;
73264;SDS011;61493;51.008;14.088;2023-12-20T02:41:41;2.17;;;1.27;;
73264;SDS011;61493;51.008;14.088;2023-12-20T02:44:07;1.95;;;1.00;;
73264;SDS011;61493;51.008;14.088;2023-12-20T02:46:34;1.83;;;1.30;;
73264;SDS011;61493;51.008;14.088;2023-12-20T02:49:00;1.83;;;1.05;;
73264;SDS011;61493;51.008;14.088;2023-12-20T02:51:26;2.28;;;1.20;;
73264;SDS011;61493;51.008;14.088;2023-12-20T02:53:51;1.10;;;0.90;;
73264;SDS011;61493;51.008;14.088;2023-12-20T02:56:17;1.27;;;0.88;;
73264;SDS011;61493;51.008;14.088;2023-12-20T02:58:43;1.60;;;1.02;;
73264;SDS011;61493;51.008;14.088;2023-12-20T03:01:08;2.47;;;1.38;;
73264;SDS011;61493;51.008;14.088;2023-12-20T03:03:34;3.30;;;1.25;;
73264;SDS011;61493;51.008;14.088;2023-12-20T03:06:00;1.92;;;1.00;;
73264;SDS011;61493;51.008;14.088;2023-12-20T03:08:33;3.45;;;1.10;;
73264;SDS011;61493;51.008;14.088;2023-12-20T03:10:59;2.10;;;1.25;;
73264;SDS011;61493;51.008;14.088;2023-12-20T03:13:26;0.93;;;0.65;;
73264;SDS011;61493;51.008;14.088;2023-12-20T03:15:51;1.60;;;1.20;;
73264;SDS011;61493;51.008;14.088;2023-12-20T03:18:17;2.30;;;1.17;;
73264;SDS011;61493;51.008;14.088;2023-12-20T03:20:45;1.70;;;1.02;;
73264;SDS011;61493;51.008;14.088;2023-12-20T03:23:12;1.48;;;0.80;;
73264;SDS011;61493;51.008;14.088;2023-12-20T03:25:37;0.85;;;0.65;;
73264;SDS011;61493;51.008;14.088;2023-12-20T03:28:03;1.67;;;0.90;;
73264;SDS011;61493;51.008;14.088;2023-12-20T03:30:29;1.17;;;0.98;;
73264;SDS011;61493;51.008;14.088;2023-12-20T03:32:55;1.20;;;0.82;;
73264;SDS011;61493;51.008;14.088;2023-12-20T03:35:20;2.95;;;0.60;;
73264;SDS011;61493;51.008;14.088;2023-12-20T03:37:45;1.42;;;0.90;;
73264;SDS011;61493;51.008;14.088;2023-12-20T03:40:11;1.25;;;0.70;;
73264;SDS011;61493;51.008;14.088;2023-12-20T03:42:36;1.38;;;1.10;;
73264;SDS011;61493;51.008;14.088;2023-12-20T03:45:02;1.88;;;0.80;;
73264;SDS011;61493;51.008;14.088;2023-12-20T03:47:27;1.48;;;0.70;;
73264;SDS011;61493;51.008;14.088;2023-12-20T03:49:52;0.77;;;0.52;;
73264;SDS011;61493;51.008;14.088;2023-12-20T03:52:18;1.02;;;0.60;;
73264;SDS011;61493;51.008;14.088;2023-12-20T03:54:43;1.33;;;0.98;;
73264;SDS011;61493;51.008;14.088;2023-12-20T03:57:08;1.52;;;0.75;;
73264;SDS011;61493;51.008;14.088;2023-12-20T03:59:37;2.30;;;0.98;;
73264;SDS011;61493;51.008;14.088;2023-12-20T04:02:03;1.17;;;0.90;;
73264;SDS011;61493;51.008;14.088;2023-12-20T04:04:30;1.48;;;0.90;;
73264;SDS011;61493;51.008;14.088;2023-12-20T04:06:56;0.75;;;0.70;;
73264;SDS011;61493;51.008;14.088;2023-12-20T04:09:21;0.93;;;0.65;;
73264;SDS011;61493;51.008;14.088;2023-12-20T04:11:48;1.95;;;1.05;;
73264;SDS011;61493;51.008;14.088;2023-12-20T04:14:14;0.90;;;0.90;;
73264;SDS011;61493;51.008;14.088;2023-12-20T04:16:41;1.60;;;1.00;;
73264;SDS011;61493;51.008;14.088;2023-12-20T04:19:07;1.63;;;0.80;;
73264;SDS011;61493;51.008;14.088;2023-12-20T04:21:33;1.42;;;0.65;;
73264;SDS011;61493;51.008;14.088;2023-12-20T04:23:58;1.35;;;0.73;;
73264;SDS011;61493;51.008;14.088;2023-12-20T04:26:23;1.85;;;1.10;;
73264;SDS011;61493;51.008;14.088;2023-12-20T04:28:49;1.48;;;0.75;;
73264;SDS011;61493;51.008;14.088;2023-12-20T04:31:14;1.50;;;0.98;;
73264;SDS011;61493;51.008;14.088;2023-12-20T04:33:39;0.98;;;0.80;;
73264;SDS011;61493;51.008;14.088;2023-12-20T04:36:05;1.00;;;0.90;;
73264;SDS011;61493;51.008;14.088;2023-12-20T04:38:30;2.08;;;1.00;;
73264;SDS011;61493;51.008;14.088;2023-12-20T04:40:56;2.03;;;0.95;;
73264;SDS011;61493;51.008;14.088;2023-12-20T04:43:22;1.52;;;1.08;;
73264;SDS011;61493;51.008;14.088;2023-12-20T04:45:47;1.60;;;1.00;;
73264;SDS011;61493;51.008;14.088;2023-12-20T04:48:12;1.35;;;0.88;;
73264;SDS011;61493;51.008;14.088;2023-12-20T04:50:38;1.67;;;1.10;;
73264;SDS011;61493;51.008;14.088;2023-12-20T04:53:03;1.77;;;1.10;;
73264;SDS011;61493;51.008;14.088;2023-12-20T04:55:28;2.42;;;0.98;;
73264;SDS011;61493;51.008;14.088;2023-12-20T04:57:54;0.95;;;0.85;;
73264;SDS011;61493;51.008;14.088;2023-12-20T05:00:20;2.22;;;1.35;;
73264;SDS011;61493;51.008;14.088;2023-12-20T05:02:45;0.75;;;0.73;;
73264;SDS011;61493;51.008;14.088;2023-12-20T05:05:10;2.15;;;0.82;;
73264;SDS011;61493;51.008;14.088;2023-12-20T05:07:36;1.50;;;0.98;;
73264;SDS011;61493;51.008;14.088;2023-12-20T05:10:01;1.25;;;1.00;;
73264;SDS011;61493;51.008;14.088;2023-12-20T05:12:29;1.92;;;1.10;;
73264;SDS011;61493;51.008;14.088;2023-12-20T05:14:54;6.43;;;3.58;;
73264;SDS011;61493;51.008;14.088;2023-12-20T05:17:19;16.40;;;7.15;;
73264;SDS011;61493;51.008;14.088;2023-12-20T05:19:45;5.60;;;4.55;;
73264;SDS011;61493;51.008;14.088;2023-12-20T05:22:10;6.68;;;4.78;;
73264;SDS011;61493;51.008;14.088;2023-12-20T05:24:36;8.43;;;7.40;;
73264;SDS011;61493;51.008;14.088;2023-12-20T05:27:01;4.15;;;2.85;;
73264;SDS011;61493;51.008;14.088;2023-12-20T05:29:27;4.53;;;3.42;;
73264;SDS011;61493;51.008;14.088;2023-12-20T05:31:52;4.80;;;2.80;;
73264;SDS011;61493;51.008;14.088;2023-12-20T05:34:17;4.63;;;2.42;;
73264;SDS011;61493;51.008;14.088;2023-12-20T05:36:42;1.80;;;1.33;;
73264;SDS011;61493;51.008;14.088;2023-12-20T05:39:08;2.00;;;1.20;;
73264;SDS011;61493;51.008;14.088;2023-12-20T05:41:33;2.65;;;1.88;;
73264;SDS011;61493;51.008;14.088;2023-12-20T05:43:59;2.70;;;1.20;;
73264;SDS011;61493;51.008;14.088;2023-12-20T05:46:24;1.88;;;1.45;;
73264;SDS011;61493;51.008;14.088;2023-12-20T05:48:49;2.75;;;1.25;;
73264;SDS011;61493;51.008;14.088;2023-12-20T05:51:16;1.95;;;1.08;;
73264;SDS011;61493;51.008;14.088;2023-12-20T05:53:41;1.70;;;0.95;;
73264;SDS011;61493;51.008;14.088;2023-12-20T05:56:07;2.38;;;1.35;;
73264;SDS011;61493;51.008;14.088;2023-12-20T05:58:32;2.25;;;1.02;;
73264;SDS011;61493;51.008;14.088;2023-12-20T06:00:58;0.98;;;0.77;;
73264;SDS011;61493;51.008;14.088;2023-12-20T06:03:24;1.33;;;1.00;;
73264;SDS011;61493;51.008;14.088;2023-12-20T06:05:49;1.48;;;1.10;;
73264;SDS011;61493;51.008;14.088;2023-12-20T06:08:15;1.58;;;0.98;;
73264;SDS011;61493;51.008;14.088;2023-12-20T06:10:40;1.67;;;1.10;;
73264;SDS011;61493;51.008;14.088;2023-12-20T06:13:06;1.40;;;1.10;;
73264;SDS011;61493;51.008;14.088;2023-12-20T06:15:32;1.38;;;0.80;;
73264;SDS011;61493;51.008;14.088;2023-12-20T06:17:57;1.65;;;0.93;;
73264;SDS011;61493;51.008;14.088;2023-12-20T06:20:23;1.50;;;1.33;;
73264;SDS011;61493;51.008;14.088;2023-12-20T06:22:50;1.75;;;1.00;;
73264;SDS011;61493;51.008;14.088;2023-12-20T06:25:16;1.33;;;0.95;;
73264;SDS011;61493;51.008;14.088;2023-12-20T06:27:41;1.63;;;1.05;;
73264;SDS011;61493;51.008;14.088;2023-12-20T06:30:07;2.58;;;1.38;;
73264;SDS011;61493;51.008;14.088;2023-12-20T06:32:34;1.88;;;1.05;;
73264;SDS011;61493;51.008;14.088;2023-12-20T06:35:00;1.77;;;1.48;;
73264;SDS011;61493;51.008;14.088;2023-12-20T06:37:29;1.65;;;1.10;;
73264;SDS011;61493;51.008;14.088;2023-12-20T06:39:54;1.40;;;1.08;;
73264;SDS011;61493;51.008;14.088;2023-12-20T06:42:19;2.53;;;1.50;;
73264;SDS011;61493;51.008;14.088;2023-12-20T06:44:45;2.00;;;1.30;;
73264;SDS011;61493;51.008;14.088;2023-12-20T06:47:10;3.80;;;1.63;;
73264;SDS011;61493;51.008;14.088;2023-12-20T06:49:39;3.80;;;1.92;;
73264;SDS011;61493;51.008;14.088;2023-12-20T06:52:08;2.97;;;1.83;;
73264;SDS011;61493;51.008;14.088;2023-12-20T06:54:36;2.42;;;1.48;;
73264;SDS011;61493;51.008;14.088;2023-12-20T06:57:04;2.20;;;1.25;;
73264;SDS011;61493;51.008;14.088;2023-12-20T06:59:31;2.17;;;1.42;;
73264;SDS011;61493;51.008;14.088;2023-12-20T07:01:57;2.78;;;1.75;;
73264;SDS011;61493;51.008;14.088;2023-12-20T07:04:23;3.25;;;1.73;;
73264;SDS011;61493;51.008;14.088;2023-12-20T07:06:49;3.90;;;2.00;;
73264;SDS011;61493;51.008;14.088;2023-12-20T07:09:22;3.05;;;1.67;;
73264;SDS011;61493;51.008;14.088;2023-12-20T07:11:47;4.25;;;1.88;;
73264;SDS011;61493;51.008;14.088;2023-12-20T07:14:13;4.03;;;2.70;;
73264;SDS011;61493;51.008;14.088;2023-12-20T07:16:39;3.33;;;2.38;;
73264;SDS011;61493;51.008;14.088;2023-12-20T07:19:05;3.70;;;2.38;;
73264;SDS011;61493;51.008;14.088;2023-12-20T07:21:33;4.25;;;2.38;;
73264;SDS011;61493;51.008;14.088;2023-12-20T07:23:59;3.53;;;2.38;;
73264;SDS011;61493;51.008;14.088;2023-12-20T07:26:25;3.67;;;2.30;;
73264;SDS011;61493;51.008;14.088;2023-12-20T07:28:50;3.15;;;2.00;;
73264;SDS011;61493;51.008;14.088;2023-12-20T07:31:20;3.95;;;2.10;;
73264;SDS011;61493;51.008;14.088;2023-12-20T07:33:49;3.47;;;2.10;;
73264;SDS011;61493;51.008;14.088;2023-12-20T07:36:14;3.40;;;2.25;;
73264;SDS011;61493;51.008;14.088;2023-12-20T07:38:43;4.03;;;2.50;;
73264;SDS011;61493;51.008;14.088;2023-12-20T07:43:44;3.20;;;2.13;;
73264;SDS011;61493;51.008;14.088;2023-12-20T07:46:14;3.65;;;2.53;;
73264;SDS011;61493;51.008;14.088;2023-12-20T07:48:43;4.18;;;2.25;;
73264;SDS011;61493;51.008;14.088;2023-12-20T07:51:08;5.10;;;3.03;;
73264;SDS011;61493;51.008;14.088;2023-12-20T07:53:35;7.00;;;4.22;;
73264;SDS011;61493;51.008;14.088;2023-12-20T07:56:00;4.88;;;3.55;;
73264;SDS011;61493;51.008;14.088;2023-12-20T07:58:27;4.75;;;2.65;;
73264;SDS011;61493;51.008;14.088;2023-12-20T08:00:55;5.65;;;3.30;;
73264;SDS011;61493;51.008;14.088;2023-12-20T08:03:23;6.93;;;3.80;;
73264;SDS011;61493;51.008;14.088;2023-12-20T08:05:50;5.35;;;3.65;;
73264;SDS011;61493;51.008;14.088;2023-12-20T08:08:16;4.95;;;2.75;;
73264;SDS011;61493;51.008;14.088;2023-12-20T08:10:49;6.38;;;3.72;;
73264;SDS011;61493;51.008;14.088;2023-12-20T08:13:15;5.43;;;2.97;;
73264;SDS011;61493;51.008;14.088;2023-12-20T08:15:40;6.40;;;3.17;;
73264;SDS011;61493;51.008;14.088;2023-12-20T08:18:08;6.25;;;3.05;;
73264;SDS011;61493;51.008;14.088;2023-12-20T08:20:33;4.50;;;2.85;;
73264;SDS011;61493;51.008;14.088;2023-12-20T08:22:58;4.40;;;2.80;;
73264;SDS011;61493;51.008;14.088;2023-12-20T08:25:25;5.72;;;3.13;;
73264;SDS011;61493;51.008;14.088;2023-12-20T08:27:51;4.53;;;2.58;;
73264;SDS011;61493;51.008;14.088;2023-12-20T08:30:16;7.65;;;3.92;;
73264;SDS011;61493;51.008;14.088;2023-12-20T08:32:47;6.05;;;3.63;;
73264;SDS011;61493;51.008;14.088;2023-12-20T08:35:13;5.18;;;3.13;;
73264;SDS011;61493;51.008;14.088;2023-12-20T08:37:38;6.07;;;3.00;;
73264;SDS011;61493;51.008;14.088;2023-12-20T08:40:03;5.47;;;3.10;;
73264;SDS011;61493;51.008;14.088;2023-12-20T08:42:32;3.83;;;2.70;;
73264;SDS011;61493;51.008;14.088;2023-12-20T08:44:58;6.55;;;2.88;;
73264;SDS011;61493;51.008;14.088;2023-12-20T08:47:24;6.25;;;3.15;;
73264;SDS011;61493;51.008;14.088;2023-12-20T08:49:52;4.35;;;2.28;;
73264;SDS011;61493;51.008;14.088;2023-12-20T08:52:23;4.03;;;2.15;;
73264;SDS011;61493;51.008;14.088;2023-12-20T08:54:49;5.53;;;2.50;;
73264;SDS011;61493;51.008;14.088;2023-12-20T08:57:20;3.35;;;1.85;;
73264;SDS011;61493;51.008;14.088;2023-12-20T08:59:46;3.13;;;1.90;;
73264;SDS011;61493;51.008;14.088;2023-12-20T09:02:13;5.63;;;2.80;;
73264;SDS011;61493;51.008;14.088;2023-12-20T09:04:39;27.73;;;11.20;;
73264;SDS011;61493;51.008;14.088;2023-12-20T09:07:04;3.95;;;2.15;;
73264;SDS011;61493;51.008;14.088;2023-12-20T09:09:30;6.75;;;2.50;;
73264;SDS011;61493;51.008;14.088;2023-12-20T09:11:57;3.08;;;1.80;;
73264;SDS011;61493;51.008;14.088;2023-12-20T09:14:23;4.32;;;2.80;;
73264;SDS011;61493;51.008;14.088;2023-12-20T09:16:48;2.45;;;1.40;;
73264;SDS011;61493;51.008;14.088;2023-12-20T09:19:16;4.28;;;1.70;;
73264;SDS011;61493;51.008;14.088;2023-12-20T09:21:42;4.32;;;1.48;;
73264;SDS011;61493;51.008;14.088;2023-12-20T09:24:08;2.63;;;1.25;;
73264;SDS011;61493;51.008;14.088;2023-12-20T09:26:34;2.38;;;1.08;;
73264;SDS011;61493;51.008;14.088;2023-12-20T09:29:00;4.90;;;1.75;;
73264;SDS011;61493;51.008;14.088;2023-12-20T09:31:25;4.55;;;1.33;;
73264;SDS011;61493;51.008;14.088;2023-12-20T09:33:54;3.95;;;1.17;;
73264;SDS011;61493;51.008;14.088;2023-12-20T09:36:56;1.70;;;0.75;;
73264;SDS011;61493;51.008;14.088;2023-12-20T09:39:21;1.92;;;0.88;;
73264;SDS011;61493;51.008;14.088;2023-12-20T09:44:28;1.10;;;0.65;;
73264;SDS011;61493;51.008;14.088;2023-12-20T09:46:54;2.53;;;0.90;;
73264;SDS011;61493;51.008;14.088;2023-12-20T09:49:20;5.07;;;1.20;;
73264;SDS011;61493;51.008;14.088;2023-12-20T09:51:47;2.22;;;1.40;;
73264;SDS011;61493;51.008;14.088;2023-12-20T09:54:16;1.80;;;0.80;;
73264;SDS011;61493;51.008;14.088;2023-12-20T09:56:45;2.45;;;1.33;;
73264;SDS011;61493;51.008;14.088;2023-12-20T10:01:57;2.90;;;1.00;;
73264;SDS011;61493;51.008;14.088;2023-12-20T10:04:28;3.28;;;1.10;;
73264;SDS011;61493;51.008;14.088;2023-12-20T10:06:57;1.35;;;0.90;;
73264;SDS011;61493;51.008;14.088;2023-12-20T10:09:28;1.48;;;0.75;;
73264;SDS011;61493;51.008;14.088;2023-12-20T10:11:57;1.90;;;1.00;;
73264;SDS011;61493;51.008;14.088;2023-12-20T10:14:22;1.65;;;0.95;;
73264;SDS011;61493;51.008;14.088;2023-12-20T10:17:03;1.83;;;0.80;;
73264;SDS011;61493;51.008;14.088;2023-12-20T10:19:49;1.77;;;0.87;;
73264;SDS011;61493;51.008;14.088;2023-12-20T10:22:14;7.80;;;1.10;;
73264;SDS011;61493;51.008;14.088;2023-12-20T10:24:40;1.90;;;1.30;;
73264;SDS011;61493;51.008;14.088;2023-12-20T10:27:06;1.50;;;0.63;;
73264;SDS011;61493;51.008;14.088;2023-12-20T10:29:33;1.65;;;0.95;;
73264;SDS011;61493;51.008;14.088;2023-12-20T10:32:14;2.30;;;0.85;;
73264;SDS011;61493;51.008;14.088;2023-12-20T10:34:50;4.03;;;0.82;;
73264;SDS011;61493;51.008;14.088;2023-12-20T10:37:17;3.13;;;0.85;;
73264;SDS011;61493;51.008;14.088;2023-12-20T10:39:47;2.15;;;1.10;;
73264;SDS011;61493;51.008;14.088;2023-12-20T10:42:15;2.75;;;1.30;;
73264;SDS011;61493;51.008;14.088;2023-12-20T10:44:41;2.55;;;0.80;;
73264;SDS011;61493;51.008;14.088;2023-12-20T10:47:07;3.05;;;1.10;;
73264;SDS011;61493;51.008;14.088;2023-12-20T10:49:36;1.90;;;0.65;;
73264;SDS011;61493;51.008;14.088;2023-12-20T10:52:02;5.05;;;1.27;;
73264;SDS011;61493;51.008;14.088;2023-12-20T10:54:28;3.45;;;1.00;;
73264;SDS011;61493;51.008;14.088;2023-12-20T10:56:54;3.85;;;1.00;;
73264;SDS011;61493;51.008;14.088;2023-12-20T10:59:23;4.35;;;1.50;;
73264;SDS011;61493;51.008;14.088;2023-12-20T11:01:49;2.95;;;1.35;;
73264;SDS011;61493;51.008;14.088;2023-12-20T11:04:17;4.70;;;0.80;;
73264;SDS011;61493;51.008;14.088;2023-12-20T11:06:51;1.67;;;0.90;;
73264;SDS011;61493;51.008;14.088;2023-12-20T11:09:24;1.77;;;0.80;;
73264;SDS011;61493;51.008;14.088;2023-12-20T11:17:12;2.88;;;0.90;;
73264;SDS011;61493;51.008;14.088;2023-12-20T11:22:32;2.30;;;0.93;;
73264;SDS011;61493;51.008;14.088;2023-12-20T11:25:06;2.47;;;1.13;;
73264;SDS011;61493;51.008;14.088;2023-12-20T11:27:46;2.50;;;1.35;;
73264;SDS011;61493;51.008;14.088;2023-12-20T11:33:08;5.22;;;1.23;;
73264;SDS011;61493;51.008;14.088;2023-12-20T11:35:33;2.13;;;1.02;;
73264;SDS011;61493;51.008;14.088;2023-12-20T11:38:00;4.72;;;1.02;;
73264;SDS011;61493;51.008;14.088;2023-12-20T11:40:25;3.58;;;1.52;;
73264;SDS011;61493;51.008;14.088;2023-12-20T11:42:52;3.08;;;1.48;;
73264;SDS011;61493;51.008;14.088;2023-12-20T11:45:23;4.97;;;1.40;;
73264;SDS011;61493;51.008;14.088;2023-12-20T11:47:50;1.92;;;1.15;;
73264;SDS011;61493;51.008;14.088;2023-12-20T11:50:18;2.88;;;0.88;;
73264;SDS011;61493;51.008;14.088;2023-12-20T11:52:44;2.47;;;0.90;;
73264;SDS011;61493;51.008;14.088;2023-12-20T11:55:10;3.38;;;1.40;;
73264;SDS011;61493;51.008;14.088;2023-12-20T11:57:36;2.97;;;1.42;;
73264;SDS011;61493;51.008;14.088;2023-12-20T12:00:02;3.90;;;1.80;;
73264;SDS011;61493;51.008;14.088;2023-12-20T12:02:28;4.57;;;1.50;;
73264;SDS011;61493;51.008;14.088;2023-12-20T12:04:55;1.67;;;1.00;;
73264;SDS011;61493;51.008;14.088;2023-12-20T12:07:21;4.47;;;1.25;;
73264;SDS011;61493;51.008;14.088;2023-12-20T12:09:47;1.30;;;1.10;;
73264;SDS011;61493;51.008;14.088;2023-12-20T12:12:13;4.38;;;1.13;;
73264;SDS011;61493;51.008;14.088;2023-12-20T12:14:39;7.53;;;1.80;;
73264;SDS011;61493;51.008;14.088;2023-12-20T12:17:09;3.53;;;1.80;;
73264;SDS011;61493;51.008;14.088;2023-12-20T12:19:39;1.10;;;0.95;;
73264;SDS011;61493;51.008;14.088;2023-12-20T12:24:38;2.33;;;1.10;;
73264;SDS011;61493;51.008;14.088;2023-12-20T12:27:05;4.63;;;1.30;;
73264;SDS011;61493;51.008;14.088;2023-12-20T12:29:32;3.42;;;1.35;;
73264;SDS011;61493;51.008;14.088;2023-12-20T12:31:58;3.45;;;1.23;;
73264;SDS011;61493;51.008;14.088;2023-12-20T12:34:24;3.35;;;0.93;;
73264;SDS011;61493;51.008;14.088;2023-12-20T12:36:56;3.65;;;1.50;;
73264;SDS011;61493;51.008;14.088;2023-12-20T12:39:23;4.25;;;1.65;;
73264;SDS011;61493;51.008;14.088;2023-12-20T12:41:49;2.00;;;1.05;;
73264;SDS011;61493;51.008;14.088;2023-12-20T12:44:15;3.60;;;1.30;;
73264;SDS011;61493;51.008;14.088;2023-12-20T12:46:40;2.90;;;1.67;;
73264;SDS011;61493;51.008;14.088;2023-12-20T12:49:06;2.45;;;1.20;;
73264;SDS011;61493;51.008;14.088;2023-12-20T12:51:31;2.00;;;1.05;;
73264;SDS011;61493;51.008;14.088;2023-12-20T12:53:57;2.58;;;1.17;;
73264;SDS011;61493;51.008;14.088;2023-12-20T12:56:22;2.47;;;1.00;;
73264;SDS011;61493;51.008;14.088;2023-12-20T12:58:48;1.67;;;0.90;;
73264;SDS011;61493;51.008;14.088;2023-12-20T13:01:13;2.65;;;0.80;;
73264;SDS011;61493;51.008;14.088;2023-12-20T13:03:39;1.60;;;1.30;;
73264;SDS011;61493;51.008;14.088;2023-12-20T13:06:05;3.53;;;1.35;;
73264;SDS011;61493;51.008;14.088;2023-12-20T13:08:31;4.95;;;1.58;;
73264;SDS011;61493;51.008;14.088;2023-12-20T13:10:56;0.65;;;0.60;;
73264;SDS011;61493;51.008;14.088;2023-12-20T13:13:25;1.85;;;1.20;;
73264;SDS011;61493;51.008;14.088;2023-12-20T13:15:51;4.40;;;1.33;;
73264;SDS011;61493;51.008;14.088;2023-12-20T13:18:19;5.68;;;1.42;;
73264;SDS011;61493;51.008;14.088;2023-12-20T13:20:45;2.22;;;1.05;;
73264;SDS011;61493;51.008;14.088;2023-12-20T13:23:10;3.55;;;1.35;;
73264;SDS011;61493;51.008;14.088;2023-12-20T13:25:36;4.85;;;2.58;;
73264;SDS011;61493;51.008;14.088;2023-12-20T13:28:01;1.70;;;1.30;;
73264;SDS011;61493;51.008;14.088;2023-12-20T13:30:28;4.90;;;1.23;;
73264;SDS011;61493;51.008;14.088;2023-12-20T13:32:53;3.80;;;1.10;;
73264;SDS011;61493;51.008;14.088;2023-12-20T13:35:23;2.10;;;0.85;;
73264;SDS011;61493;51.008;14.088;2023-12-20T13:37:54;4.78;;;1.55;;
73264;SDS011;61493;51.008;14.088;2023-12-20T13:41:09;4.25;;;1.70;;
73264;SDS011;61493;51.008;14.088;2023-12-20T13:43:35;2.30;;;1.35;;
73264;SDS011;61493;51.008;14.088;2023-12-20T13:46:03;2.75;;;1.35;;
73264;SDS011;61493;51.008;14.088;2023-12-20T13:48:29;1.98;;;1.10;;
73264;SDS011;61493;51.008;14.088;2023-12-20T13:50:54;4.43;;;1.30;;
73264;SDS011;61493;51.008;14.088;2023-12-20T13:53:20;2.30;;;1.30;;
73264;SDS011;61493;51.008;14.088;2023-12-20T13:55:45;3.50;;;1.23;;
73264;SDS011;61493;51.008;14.088;2023-12-20T13:58:10;3.33;;;1.20;;
73264;SDS011;61493;51.008;14.088;2023-12-20T14:00:43;1.88;;;0.90;;
73264;SDS011;61493;51.008;14.088;2023-12-20T14:03:11;2.85;;;1.10;;
73264;SDS011;61493;51.008;14.088;2023-12-20T14:08:10;3.40;;;1.00;;
73264;SDS011;61493;51.008;14.088;2023-12-20T14:10:35;3.50;;;2.35;;
73264;SDS011;61493;51.008;14.088;2023-12-20T14:13:01;5.13;;;1.27;;
73264;SDS011;61493;51.008;14.088;2023-12-20T14:15:26;2.17;;;1.10;;
73264;SDS011;61493;51.008;14.088;2023-12-20T14:17:51;4.45;;;1.58;;
73264;SDS011;61493;51.008;14.088;2023-12-20T14:20:18;2.08;;;1.13;;
73264;SDS011;61493;51.008;14.088;2023-12-20T14:22:43;1.42;;;1.23;;
73264;SDS011;61493;51.008;14.088;2023-12-20T14:25:12;3.40;;;1.17;;
73264;SDS011;61493;51.008;14.088;2023-12-20T14:27:39;1.20;;;1.02;;
73264;SDS011;61493;51.008;14.088;2023-12-20T14:30:08;2.45;;;0.88;;
73264;SDS011;61493;51.008;14.088;2023-12-20T14:32:34;8.63;;;1.65;;
73264;SDS011;61493;51.008;14.088;2023-12-20T14:35:04;1.85;;;1.20;;
73264;SDS011;61493;51.008;14.088;2023-12-20T14:37:30;3.65;;;1.65;;
73264;SDS011;61493;51.008;14.088;2023-12-20T14:39:55;1.75;;;1.10;;
73264;SDS011;61493;51.008;14.088;2023-12-20T14:42:20;3.35;;;1.30;;
73264;SDS011;61493;51.008;14.088;2023-12-20T14:44:47;1.60;;;1.20;;
73264;SDS011;61493;51.008;14.088;2023-12-20T14:47:12;3.10;;;1.30;;
73264;SDS011;61493;51.008;14.088;2023-12-20T14:49:39;3.75;;;1.40;;
73264;SDS011;61493;51.008;14.088;2023-12-20T14:52:05;2.97;;;1.00;;
73264;SDS011;61493;51.008;14.088;2023-12-20T14:54:30;2.38;;;0.90;;
73264;SDS011;61493;51.008;14.088;2023-12-20T14:56:55;3.35;;;1.48;;
73264;SDS011;61493;51.008;14.088;2023-12-20T14:59:22;7.68;;;1.27;;
73264;SDS011;61493;51.008;14.088;2023-12-20T15:01:47;4.35;;;1.67;;
73264;SDS011;61493;51.008;14.088;2023-12-20T15:04:12;2.22;;;1.20;;
73264;SDS011;61493;51.008;14.088;2023-12-20T15:06:38;1.88;;;1.20;;
73264;SDS011;61493;51.008;14.088;2023-12-20T15:09:04;1.80;;;1.05;;
73264;SDS011;61493;51.008;14.088;2023-12-20T15:11:30;1.65;;;1.10;;
73264;SDS011;61493;51.008;14.088;2023-12-20T15:13:56;1.00;;;0.88;;
73264;SDS011;61493;51.008;14.088;2023-12-20T15:16:23;1.83;;;0.82;;
73264;SDS011;61493;51.008;14.088;2023-12-20T15:18:48;2.78;;;1.23;;
73264;SDS011;61493;51.008;14.088;2023-12-20T15:21:14;2.53;;;1.20;;
73264;SDS011;61493;51.008;14.088;2023-12-20T15:23:40;1.23;;;0.82;;
73264;SDS011;61493;51.008;14.088;2023-12-20T15:26:08;1.60;;;1.20;;
73264;SDS011;61493;51.008;14.088;2023-12-20T15:28:34;3.17;;;1.05;;
73264;SDS011;61493;51.008;14.088;2023-12-20T15:30:59;1.83;;;1.25;;
73264;SDS011;61493;51.008;14.088;2023-12-20T15:33:24;2.30;;;1.35;;
73264;SDS011;61493;51.008;14.088;2023-12-20T15:35:49;2.40;;;1.05;;
73264;SDS011;61493;51.008;14.088;2023-12-20T15:38:15;2.03;;;1.20;;